Terminal Aerodrome Forecast
Issued by NWS Louisville, KY

Home | Current Version | Previous Version | Text Only | Print | Product List | Glossary On
Versions: 1 2 3 4 5 6 7 8 9 10 11 12 13 14
914
FTUS43 KLMK 261730
TAFBWG
TAF
KBWG 261730Z 2618/2718 23006KT P6SM SCT040 SCT250
     FM262000 23007KT P6SM VCTS SCT040CB SCT250
     FM270000 00000KT P6SM SCT250
     FM271400 22005KT P6SM SCT040=

USA.gov is the U.S. government's official web portal to all federal, state and local government web resources and services.